Landrienne, Canada
Current Conditions -  °F | °C
As of 11:00 PM on Friday 24 Oct 2014 (Local Time) from CYVO Reporting Station
Broken Clouds Broken Clouds  
Wind Chill: 36°   Ceiling: 3300
Heat Index: 41°   Visibility: 9mi
Dew Point: 32°   Wind: 8mph
Humidity: 70%   Direction: 210°SSW
Pressure: 29.77"   Gusts: NA
Location:  48.55°N, 77.95°W
Report Text: CYVO 250300Z AUTO 21007KT 9SM BKN033 05/M00 A2977 RMK SLP096
Loading
Personal Weather Stations






























Interactive Weather Map
Tropical Storm Tracking
New forecast layout! Learn more

10-Day Weather Forecast

Advertisements
Track Severe Weather on mobile